Portada
METAR-TAF:

METAR-TAF

Aeropuertos :

Aeropuerto Cherif Al Idrissi

Alhucemas, Marruecos

latitud: 35-11N, longitud: 003-51W, altitud: 27 m

Observación

El informe se hizo hace 16 minutos, a las 01:00 UTC
Viento 2 kt con dirección variable
Temperatura 18°C
Humedad 88%
Presión 1014 hPa
Visibilidad: 8000 m

METAR: GMTA 230100Z VRB02KT 8000 NSC 18/16 Q1014 NOSIG

Hora: 01:16 (01:16 UTC)

Pronóstico

El informe se hizo hace 2 horas y 16 minutos, a las 23:00 UTC
Pronóstico válido del 23 a las 00 UTC al 24 a las 05 UTC
Viento 2 kt con dirección variable
Visibilidad: 8000 m
Evolucionando progresivamente
del 23 a las 10 UTC al 23 a las 12 UTC
Viento 10 kt del norte

TAF: GMTA 222300Z 2300/2405 VRB02KT 8000 NSC BECMG 2310/2312 01010KT

Observaciones y pronósticos meteorológicos de más de 4000 aeropuertos (mensajes METAR y TAF).

Los puntos amarillos y rojos representan las estaciones disponibles.

Ponga el ratón en el punto deseado para ver el nombre de la estación.

Haga clic para ver las observaciones y los pronósticos meteorológicos.

Para cambiar el mapa : haga clic en los botones verdes con una cruz de color negro para hacer un zoom, en el botón verde con un guión para alejar o en las flechas verdes para mapas adyacentes.


METAR-TAF: